Wetterstation Vordersexau
Wetterdaten: Woche 20.05.13 - 26.05.13 (KW21)
Datum Zeit Temp. A. Feuchte A. Luftdruck Regen Wind Richtung Taupunkt Windchill Windben
20.05.2013 00:00 10,5 C 82 % 1010,1 hPa 0,0 l/m 24,0 km/h W 7,6 C 2,8 C 13,3 km/h
20.05.2013 01:00 10,6 C 81 % 1010,5 hPa 0,0 l/m 7,8 km/h N-NW 7,5 C 9,6 C 4,3 km/h
20.05.2013 02:00 10,6 C 80 % 1010,4 hPa 0,0 l/m 22,7 km/h W-NW 7,3 C 3,3 C 12,6 km/h
20.05.2013 03:00 10,5 C 79 % 1010,6 hPa 0,0 l/m 19,4 km/h W-NW 7,0 C 4,1 C 10,8 km/h
20.05.2013 04:00 10,1 C 80 % 1010,5 hPa 0,0 l/m 16,2 km/h NW 6,8 C 4,8 C 9,0 km/h
20.05.2013 05:00 10,0 C 79 % 1010,5 hPa 0,0 l/m 22,7 km/h N-NW 6,5 C 2,5 C 12,6 km/h
20.05.2013 06:00 9,9 C 79 % 1010,5 hPa 0,0 l/m 21,4 km/h W 6,4 C 2,7 C 11,9 km/h
20.05.2013 07:00 10,2 C 78 % 1010,7 hPa 0,0 l/m 19,4 km/h N-NW 6,5 C 3,7 C 10,8 km/h
20.05.2013 08:00 11,9 C 73 % 1010,8 hPa 0,0 l/m 7,8 km/h N 7,2 C 11,0 C 4,3 km/h
20.05.2013 09:00 11,8 C 72 % 1010,9 hPa 0,0 l/m 24,0 km/h N 6,9 C 4,5 C 13,3 km/h
20.05.2013 10:00 13,3 C 69 % 1010,7 hPa 0,0 l/m 5,2 km/h N-NW 7,7 C 13,3 C 2,9 km/h
20.05.2013 11:00 12,9 C 70 % 1010,9 hPa 0,0 l/m 27,9 km/h N-NW 7,6 C 5,1 C 15,5 km/h
20.05.2013 12:00 11,8 C 74 % 1011,0 hPa 0,0 l/m 20,1 km/h NW 7,3 C 5,6 C 11,2 km/h
20.05.2013 13:00 11,3 C 80 % 1011,1 hPa 0,5 l/m 16,8 km/h N 8,0 C 6,0 C 9,4 km/h
20.05.2013 14:00 12,1 C 74 % 1011,4 hPa 0,5 l/m 23,3 km/h N 7,6 C 5,1 C 13,0 km/h
20.05.2013 15:00 12,8 C 72 % 1011,9 hPa 0,0 l/m 22,0 km/h W-NW 7,9 C 6,4 C 12,2 km/h
20.05.2013 16:00 12,1 C 75 % 1012,0 hPa 0,0 l/m 7,8 km/h NW 7,8 C 11,2 C 4,3 km/h
20.05.2013 17:00 11,3 C 75 % 1011,9 hPa 0,0 l/m 3,9 km/h N-NW 7,0 C 11,3 C 2,2 km/h
20.05.2013 18:00 10,2 C 79 % 1012,0 hPa 0,0 l/m 14,9 km/h NW 6,7 C 5,4 C 8,3 km/h
20.05.2013 19:00 9,5 C 83 % 1012,0 hPa 0,0 l/m 4,5 km/h W 6,8 C 9,5 C 2,5 km/h
20.05.2013 20:00 9,3 C 83 % 1012,0 hPa 0,5 l/m 1,9 km/h W-NW 6,6 C 9,3 C 1,1 km/h
20.05.2013 21:00 8,9 C 84 % 1012,0 hPa 0,0 l/m 2,6 km/h W 6,3 C 8,9 C 1,4 km/h
20.05.2013 22:00 8,9 C 84 % 1012,1 hPa 0,5 l/m 11,0 km/h W 6,3 C 5,8 C 6,1 km/h
20.05.2013 23:00 8,6 C 84 % 1012,3 hPa 0,0 l/m 1,9 km/h W 6,1 C 8,6 C 1,1 km/h
21.05.2013 00:00 8,7 C 84 % 1012,0 hPa 0,5 l/m 4,5 km/h W-SW 6,2 C 8,7 C 2,5 km/h
21.05.2013 01:00 8,7 C 84 % 1011,9 hPa 0,5 l/m 1,9 km/h W-NW 6,2 C 8,7 C 1,1 km/h
21.05.2013 02:00 8,6 C 83 % 1011,7 hPa 0,5 l/m 16,2 km/h NW 5,9 C 2,9 C 9,0 km/h
21.05.2013 03:00 8,8 C 84 % 1011,1 hPa 0,5 l/m 11,0 km/h W-NW 6,2 C 5,7 C 6,1 km/h
21.05.2013 04:00 8,4 C 83 % 1010,9 hPa 0,5 l/m 5,8 km/h S-SW 5,7 C 8,4 C 3,2 km/h
21.05.2013 05:00 8,3 C 84 % 1010,6 hPa 0,0 l/m 21,4 km/h N-NW 5,8 C 0,6 C 11,9 km/h
21.05.2013 06:00 8,3 C 84 % 1010,4 hPa 0,5 l/m 0,0 km/h W 5,8 C 8,3 C 0,0 km/h
21.05.2013 07:00 8,3 C 83 % 1010,5 hPa 1,0 l/m 7,1 km/h W 5,6 C 7,8 C 4,0 km/h
21.05.2013 08:00 8,9 C 84 % 1010,7 hPa 0,5 l/m 11,7 km/h SW 6,3 C 5,4 C 6,5 km/h
21.05.2013 09:00 9,6 C 84 % 1010,6 hPa 1,0 l/m 6,5 km/h W-NW 7,0 C 9,6 C 3,6 km/h
21.05.2013 10:00 11,2 C 83 % 1010,6 hPa 0,5 l/m 4,5 km/h NW 8,4 C 11,2 C 2,5 km/h
21.05.2013 11:00 12,3 C 78 % 1010,8 hPa 0,0 l/m 1,3 km/h W 8,6 C 12,3 C 0,7 km/h
21.05.2013 12:00 13,3 C 76 % 1010,6 hPa 0,0 l/m 14,9 km/h NW 9,2 C 9,2 C 8,3 km/h
21.05.2013 13:00 13,7 C 74 % 1010,6 hPa 0,0 l/m 18,1 km/h NW 9,2 C 8,6 C 10,1 km/h
21.05.2013 14:00 13,6 C 73 % 1010,2 hPa 0,0 l/m 19,4 km/h N-NW 8,9 C 8,1 C 10,8 km/h
21.05.2013 15:00 15,1 C 69 % 1009,8 hPa 0,0 l/m 13,6 km/h W 9,5 C 11,8 C 7,6 km/h
21.05.2013 16:00 17,1 C 65 % 1009,4 hPa 0,0 l/m 21,4 km/h W 10,5 C 12,2 C 11,9 km/h
21.05.2013 17:00 15,4 C 67 % 1009,4 hPa 0,0 l/m 11,0 km/h NW 9,3 C 13,1 C 6,1 km/h
21.05.2013 18:00 14,1 C 73 % 1009,3 hPa 0,0 l/m 5,8 km/h W-NW 9,3 C 14,1 C 3,2 km/h
21.05.2013 19:00 13,3 C 76 % 1009,2 hPa 0,0 l/m 18,1 km/h N-NW 9,2 C 8,1 C 10,1 km/h
21.05.2013 20:00 12,4 C 78 % 1009,1 hPa 0,0 l/m 9,7 km/h N-NW 8,7 C 10,4 C 5,4 km/h
21.05.2013 21:00 11,6 C 80 % 1009,3 hPa 0,0 l/m 4,5 km/h W-NW 8,3 C 11,6 C 2,5 km/h
21.05.2013 22:00 11,4 C 81 % 1009,6 hPa 0,0 l/m 7,8 km/h W-NW 8,3 C 10,5 C 4,3 km/h
21.05.2013 23:00 11,3 C 81 % 1009,4 hPa 0,0 l/m 18,8 km/h W-NW 8,2 C 5,3 C 10,4 km/h
22.05.2013 00:00 10,4 C 83 % 1009,3 hPa 0,0 l/m 4,5 km/h W-NW 7,6 C 10,4 C 2,5 km/h
22.05.2013 01:00 10,3 C 83 % 1008,9 hPa 0,5 l/m 0,0 km/h W 7,5 C 10,3 C 0,0 km/h
22.05.2013 02:00 10,2 C 79 % 1008,5 hPa 1,6 l/m 0,0 km/h N 6,7 C 10,2 C 0,0 km/h
22.05.2013 03:00 10,4 C 78 % 1007,7 hPa 0,0 l/m 0,0 km/h N-NW 6,7 C 10,4 C 0,0 km/h
22.05.2013 04:00 10,3 C 74 % 1007,7 hPa 0,5 l/m 7,1 km/h N 5,9 C 9,8 C 4,0 km/h
22.05.2013 05:00 10,2 C 71 % 1007,8 hPa 2,1 l/m 2,6 km/h SW 5,2 C 10,2 C 1,4 km/h
22.05.2013 06:00 9,9 C 70 % 1008,0 hPa 0,5 l/m 0,0 km/h O-NO 4,7 C 9,9 C 0,0 km/h
22.05.2013 07:00 10,1 C 70 % 1008,3 hPa 1,0 l/m 0,0 km/h NO 4,9 C 10,1 C 0,0 km/h
22.05.2013 08:00 10,3 C 75 % 1008,8 hPa 0,5 l/m 0,0 km/h NO 6,1 C 10,3 C 0,0 km/h
22.05.2013 09:00 9,8 C 78 % 1009,4 hPa 0,0 l/m 0,0 km/h N 6,1 C 9,8 C 0,0 km/h
22.05.2013 10:00 10,3 C 82 % 1009,9 hPa 0,0 l/m 5,8 km/h N-NO 7,4 C 10,3 C 3,2 km/h
22.05.2013 11:00 10,6 C 84 % 1010,4 hPa 0,5 l/m 0,0 km/h NO 8,0 C 10,6 C 0,0 km/h
22.05.2013 12:00 10,4 C 84 % 1010,8 hPa 0,0 l/m 0,0 km/h SO 7,8 C 10,4 C 0,0 km/h
22.05.2013 13:00 10,0 C 83 % 1011,3 hPa 0,5 l/m 0,0 km/h SO 7,2 C 10,0 C 0,0 km/h
22.05.2013 14:00 10,0 C 83 % 1011,8 hPa 0,5 l/m 0,0 km/h O-NO 7,2 C 10,0 C 0,0 km/h
22.05.2013 15:00 10,2 C 84 % 1012,0 hPa 0,0 l/m 0,0 km/h O-SO 7,6 C 10,2 C 0,0 km/h
22.05.2013 16:00 13,6 C 84 % 1012,0 hPa 0,0 l/m 3,9 km/h SO 10,9 C 13,6 C 2,2 km/h
22.05.2013 17:00 12,1 C 82 % 1012,3 hPa 0,0 l/m 0,0 km/h S-SW 9,1 C 12,1 C 0,0 km/h
22.05.2013 18:00 11,9 C 78 % 1012,1 hPa 0,0 l/m 0,0 km/h SO 8,2 C 11,9 C 0,0 km/h
22.05.2013 19:00 10,2 C 83 % 1012,4 hPa 0,0 l/m 0,0 km/h O-SO 7,4 C 10,2 C 0,0 km/h
22.05.2013 20:00 9,3 C 82 % 1012,9 hPa 0,0 l/m 0,0 km/h S-SO 6,4 C 9,3 C 0,0 km/h
22.05.2013 21:00 8,4 C 83 % 1013,4 hPa 0,0 l/m 0,0 km/h O-SO 5,7 C 8,4 C 0,0 km/h
22.05.2013 22:00 7,9 C 84 % 1013,8 hPa 0,0 l/m 0,0 km/h S-SO 5,4 C 7,9 C 0,0 km/h
22.05.2013 23:00 7,8 C 83 % 1013,8 hPa 0,0 l/m 0,0 km/h S-SO 5,1 C 7,8 C 0,0 km/h
23.05.2013 00:00 7,4 C 83 % 1013,4 hPa 0,0 l/m 0,0 km/h SO 4,7 C 7,4 C 0,0 km/h
23.05.2013 01:00 7,4 C 82 % 1012,8 hPa 0,0 l/m 0,0 km/h NO 4,5 C 7,4 C 0,0 km/h
23.05.2013 02:00 7,4 C 81 % 1012,3 hPa 1,0 l/m 0,0 km/h S-SW 4,4 C 7,4 C 0,0 km/h
23.05.2013 03:00 7,1 C 81 % 1011,4 hPa 0,0 l/m 0,0 km/h S-SW 4,1 C 7,1 C 0,0 km/h
23.05.2013 04:00 6,9 C 80 % 1010,7 hPa 0,0 l/m 0,0 km/h S-SW 3,7 C 6,9 C 0,0 km/h
23.05.2013 05:00 6,6 C 78 % 1010,2 hPa 0,0 l/m 0,0 km/h S-SW 3,0 C 6,6 C 0,0 km/h
23.05.2013 06:00 6,4 C 78 % 1009,9 hPa 0,0 l/m 0,0 km/h SO 2,8 C 6,4 C 0,0 km/h
23.05.2013 07:00 7,0 C 73 % 1009,6 hPa 0,0 l/m 0,0 km/h S-SW 2,5 C 7,0 C 0,0 km/h
23.05.2013 08:00 10,0 C 66 % 1008,7 hPa 0,0 l/m 0,0 km/h N-NW 3,9 C 10,0 C 0,0 km/h
23.05.2013 09:00 14,4 C 65 % 1008,1 hPa 0,0 l/m 4,5 km/h N 7,9 C 14,4 C 2,5 km/h
23.05.2013 10:00 12,5 C 69 % 1007,5 hPa 0,0 l/m 22,7 km/h NW 7,0 C 5,8 C 12,6 km/h
23.05.2013 11:00 16,9 C 53 % 1006,5 hPa 0,0 l/m 17,5 km/h N-NW 7,3 C 12,8 C 9,7 km/h
23.05.2013 12:00 12,9 C 59 % 1005,6 hPa 0,0 l/m 24,0 km/h NW 5,1 C 6,0 C 13,3 km/h
23.05.2013 13:00 13,2 C 62 % 1005,0 hPa 0,0 l/m 17,5 km/h N 6,1 C 8,2 C 9,7 km/h
23.05.2013 14:00 11,8 C 64 % 1004,8 hPa 0,0 l/m 14,9 km/h N-NO 5,2 C 7,4 C 8,3 km/h
23.05.2013 15:00 9,9 C 71 % 1005,0 hPa 0,0 l/m 12,3 km/h N-NO 4,9 C 6,2 C 6,8 km/h
23.05.2013 16:00 6,8 C 83 % 1006,4 hPa 1,6 l/m 0,0 km/h W-NW 4,1 C 6,8 C 0,0 km/h
23.05.2013 17:00 6,7 C 84 % 1007,1 hPa 1,6 l/m 2,6 km/h N 4,2 C 6,7 C 1,4 km/h
23.05.2013 18:00 9,1 C 83 % 1007,0 hPa 1,0 l/m 1,3 km/h N-NO 6,4 C 9,1 C 0,7 km/h
23.05.2013 19:00 7,5 C 80 % 1007,3 hPa 0,0 l/m 0,0 km/h N 4,3 C 7,5 C 0,0 km/h
23.05.2013 20:00 6,9 C 83 % 1007,5 hPa 1,0 l/m 0,0 km/h O-NO 4,2 C 6,9 C 0,0 km/h
23.05.2013 21:00 5,8 C 84 % 1008,2 hPa 0,0 l/m 0,0 km/h NO 3,3 C 5,8 C 0,0 km/h
23.05.2013 22:00 5,8 C 84 % 1009,1 hPa 0,0 l/m 0,0 km/h SW 3,3 C 5,8 C 0,0 km/h
23.05.2013 23:00 4,4 C 84 % 1009,4 hPa 0,0 l/m 0,0 km/h SO 1,9 C 4,4 C 0,0 km/h
24.05.2013 00:00 4,1 C 84 % 1009,3 hPa 0,0 l/m 0,0 km/h SO 1,6 C 4,1 C 0,0 km/h
24.05.2013 01:00 4,0 C 83 % 1009,3 hPa 0,0 l/m 0,0 km/h SO 1,4 C 4,0 C 0,0 km/h
24.05.2013 02:00 4,4 C 82 % 1009,2 hPa 0,0 l/m 0,0 km/h SO 1,6 C 4,4 C 0,0 km/h
24.05.2013 03:00 4,5 C 81 % 1008,9 hPa 0,0 l/m 0,0 km/h SO 1,5 C 4,5 C 0,0 km/h
24.05.2013 04:00 3,4 C 82 % 1008,9 hPa 0,0 l/m 0,0 km/h SO 0,6 C 3,4 C 0,0 km/h
24.05.2013 05:00 3,5 C 81 % 1008,9 hPa 0,0 l/m 0,0 km/h SO 0,6 C 3,5 C 0,0 km/h
24.05.2013 06:00 3,7 C 80 % 1009,2 hPa 0,0 l/m 0,0 km/h SO 0,6 C 3,7 C 0,0 km/h
24.05.2013 07:00 4,9 C 77 % 1009,2 hPa 0,0 l/m 0,0 km/h W 1,2 C 4,9 C 0,0 km/h
24.05.2013 08:00 8,8 C 65 % 1009,2 hPa 0,0 l/m 0,0 km/h O-SO 2,6 C 8,8 C 0,0 km/h
24.05.2013 09:00 10,1 C 75 % 1009,6 hPa 0,0 l/m 0,0 km/h W-SW 5,9 C 10,1 C 0,0 km/h
24.05.2013 10:00 15,3 C 62 % 1009,6 hPa 0,0 l/m 0,0 km/h NO 8,1 C 15,3 C 0,0 km/h
24.05.2013 11:00 17,3 C 44 % 1009,5 hPa 0,0 l/m 7,8 km/h NW 4,9 C 16,6 C 4,3 km/h
24.05.2013 12:00 12,6 C 54 % 1009,3 hPa 0,0 l/m 1,9 km/h N-NO 3,5 C 12,6 C 1,1 km/h
24.05.2013 13:00 13,9 C 48 % 1009,3 hPa 0,0 l/m 1,9 km/h N-NO 3,1 C 13,9 C 1,1 km/h
24.05.2013 14:00 14,6 C 54 % 1009,5 hPa 0,0 l/m 3,2 km/h O-SO 5,4 C 14,6 C 1,8 km/h
24.05.2013 15:00 18,7 C 45 % 1009,4 hPa 0,0 l/m 5,8 km/h W-SW 6,5 C 18,7 C 3,2 km/h
24.05.2013 16:00 14,3 C 52 % 1009,3 hPa 0,0 l/m 0,0 km/h W-NW 4,6 C 14,3 C 0,0 km/h
24.05.2013 17:00 15,3 C 47 % 1009,0 hPa 0,0 l/m 3,9 km/h NW 4,1 C 15,3 C 2,2 km/h
24.05.2013 18:00 11,7 C 54 % 1009,0 hPa 0,0 l/m 0,0 km/h N-NO 2,7 C 11,7 C 0,0 km/h
24.05.2013 19:00 8,8 C 67 % 1009,4 hPa 0,0 l/m 10,4 km/h SO 3,0 C 6,0 C 5,8 km/h
24.05.2013 20:00 6,7 C 74 % 1009,8 hPa 0,0 l/m 0,0 km/h O-SO 2,4 C 6,7 C 0,0 km/h
24.05.2013 21:00 5,2 C 78 % 1009,8 hPa 0,0 l/m 0,0 km/h S-SO 1,7 C 5,2 C 0,0 km/h
24.05.2013 22:00 4,1 C 82 % 1010,2 hPa 0,0 l/m 0,0 km/h S-SW 1,3 C 4,1 C 0,0 km/h
24.05.2013 23:00 3,8 C 83 % 1010,4 hPa 0,0 l/m 7,8 km/h SW 1,2 C 2,5 C 4,3 km/h
25.05.2013 00:00 3,2 C 84 % 1010,7 hPa 0,0 l/m 0,0 km/h S-SO 0,8 C 3,2 C 0,0 km/h
25.05.2013 01:00 3,9 C 84 % 1010,5 hPa 0,0 l/m 0,0 km/h S 1,4 C 3,9 C 0,0 km/h
25.05.2013 02:00 3,1 C 84 % 1010,0 hPa 0,0 l/m 0,0 km/h S-SW 0,7 C 3,1 C 0,0 km/h
25.05.2013 03:00 2,9 C 84 % 1009,7 hPa 0,0 l/m 0,0 km/h SO 0,5 C 2,9 C 0,0 km/h
25.05.2013 04:00 3,3 C 83 % 1009,4 hPa 0,0 l/m 0,0 km/h S-SW 0,7 C 3,3 C 0,0 km/h
25.05.2013 05:00 3,8 C 83 % 1009,4 hPa 0,0 l/m 0,0 km/h S-SW 1,2 C 3,8 C 0,0 km/h
25.05.2013 06:00 4,1 C 82 % 1009,5 hPa 0,0 l/m 0,0 km/h S-SW 1,3 C 4,1 C 0,0 km/h
25.05.2013 07:00 6,4 C 82 % 1009,5 hPa 0,0 l/m 0,0 km/h NO 3,6 C 6,4 C 0,0 km/h
25.05.2013 08:00 15,3 C 60 % 1009,4 hPa 0,0 l/m 0,0 km/h N-NW 7,6 C 15,3 C 0,0 km/h
25.05.2013 09:00 13,8 C 61 % 1009,7 hPa 0,0 l/m 0,6 km/h N-NO 6,4 C 13,8 C 0,4 km/h
25.05.2013 10:00 15,9 C 54 % 1009,8 hPa 0,0 l/m 0,0 km/h SW 6,6 C 15,9 C 0,0 km/h
25.05.2013 11:00 17,4 C 49 % 1009,9 hPa 0,0 l/m 11,7 km/h O 6,6 C 15,1 C 6,5 km/h
25.05.2013 12:00 14,3 C 54 % 1010,2 hPa 0,0 l/m 14,3 km/h O-NO 5,1 C 10,6 C 7,9 km/h
25.05.2013 13:00 14,2 C 53 % 1010,1 hPa 0,0 l/m 1,9 km/h O-SO 4,8 C 14,2 C 1,1 km/h
25.05.2013 14:00 17,8 C 47 % 1010,3 hPa 0,0 l/m 1,3 km/h O-SO 6,3 C 17,8 C 0,7 km/h
25.05.2013 15:00 20,9 C 43 % 1010,1 hPa 0,0 l/m 0,0 km/h NO 7,8 C 20,9 C 0,0 km/h
25.05.2013 16:00 21,6 C 33 % 1010,1 hPa 0,0 l/m 1,9 km/h O-SO 4,6 C 21,6 C 1,1 km/h
25.05.2013 17:00 21,3 C 34 % 1010,6 hPa 0,0 l/m 8,4 km/h O-SO 4,8 C 20,6 C 4,7 km/h
25.05.2013 18:00 21,2 C 37 % 1010,4 hPa 0,0 l/m 1,3 km/h NO 5,9 C 21,2 C 0,7 km/h
25.05.2013 19:00 12,2 C 55 % 1011,0 hPa 0,0 l/m 0,0 km/h N-NO 3,4 C 12,2 C 0,0 km/h
25.05.2013 20:00 10,9 C 64 % 1011,9 hPa 0,0 l/m 0,0 km/h W-SW 4,4 C 10,9 C 0,0 km/h
25.05.2013 21:00 9,3 C 71 % 1012,2 hPa 0,0 l/m 0,0 km/h N-NW 4,3 C 9,3 C 0,0 km/h
25.05.2013 22:00 8,4 C 75 % 1013,2 hPa 0,0 l/m 0,0 km/h N 4,2 C 8,4 C 0,0 km/h
25.05.2013 23:00 8,3 C 76 % 1013,6 hPa 0,0 l/m 9,1 km/h N 4,3 C 6,3 C 5,0 km/h
26.05.2013 00:00 7,9 C 78 % 1013,8 hPa 0,0 l/m 1,3 km/h NO 4,3 C 7,9 C 0,7 km/h
26.05.2013 01:00 7,5 C 80 % 1013,7 hPa 0,0 l/m 0,0 km/h NO 4,3 C 7,5 C 0,0 km/h
26.05.2013 02:00 7,4 C 81 % 1013,6 hPa 0,0 l/m 0,0 km/h NO 4,4 C 7,4 C 0,0 km/h
26.05.2013 03:00 7,3 C 82 % 1013,4 hPa 0,0 l/m 0,0 km/h N 4,4 C 7,3 C 0,0 km/h
26.05.2013 04:00 7,1 C 83 % 1013,4 hPa 0,0 l/m 4,5 km/h N 4,4 C 7,1 C 2,5 km/h
26.05.2013 05:00 7,0 C 84 % 1013,2 hPa 0,0 l/m 7,8 km/h N 4,5 C 5,9 C 4,3 km/h
26.05.2013 06:00 6,8 C 84 % 1013,4 hPa 0,0 l/m 8,4 km/h N-NW 4,3 C 5,2 C 4,7 km/h
26.05.2013 07:00 6,8 C 83 % 1013,5 hPa 0,5 l/m 11,0 km/h N 4,1 C 3,4 C 6,1 km/h
26.05.2013 08:00 7,6 C 84 % 1013,5 hPa 0,0 l/m 29,2 km/h N 5,1 C -2,5 C 16,2 km/h
26.05.2013 09:00 9,2 C 83 % 1013,4 hPa 0,0 l/m 7,1 km/h N 6,5 C 8,7 C 4,0 km/h
26.05.2013 10:00 8,5 C 81 % 1013,5 hPa 0,0 l/m 16,8 km/h N-NO 5,4 C 2,5 C 9,4 km/h
26.05.2013 11:00 9,4 C 70 % 1013,6 hPa 0,0 l/m 7,8 km/h N-NW 4,2 C 8,4 C 4,3 km/h
26.05.2013 12:00 9,9 C 72 % 1013,4 hPa 0,0 l/m 35,0 km/h NW 5,1 C -0,5 C 19,4 km/h
26.05.2013 13:00 10,1 C 71 % 1013,2 hPa 0,0 l/m 24,0 km/h N-NW 5,1 C 2,2 C 13,3 km/h
26.05.2013 14:00 9,6 C 74 % 1013,1 hPa 0,0 l/m 23,3 km/h NO 5,2 C 1,8 C 13,0 km/h
26.05.2013 15:00 9,0 C 81 % 1013,3 hPa 0,5 l/m 0,0 km/h N-NW 5,9 C 9,0 C 0,0 km/h
26.05.2013 16:00 8,9 C 83 % 1013,7 hPa 1,6 l/m 22,0 km/h N-NW 6,2 C 1,2 C 12,2 km/h
26.05.2013 17:00 8,0 C 83 % 1013,5 hPa 0,5 l/m 25,9 km/h W-NW 5,3 C -1,1 C 14,4 km/h
26.05.2013 18:00 7,6 C 83 % 1013,4 hPa 0,5 l/m 20,1 km/h W-NW 4,9 C 0,2 C 11,2 km/h
26.05.2013 19:00 7,2 C 83 % 1013,6 hPa 0,5 l/m 2,6 km/h NW 4,5 C 7,2 C 1,4 km/h
26.05.2013 20:00 7,0 C 82 % 1013,5 hPa 0,5 l/m 16,2 km/h W 4,1 C 0,9 C 9,0 km/h
26.05.2013 21:00 7,0 C 81 % 1013,5 hPa 0,5 l/m 4,5 km/h N-NW 4,0 C 7,0 C 2,5 km/h
26.05.2013 22:00 7,1 C 81 % 1013,7 hPa 0,5 l/m 8,4 km/h N-NW 4,1 C 5,5 C 4,7 km/h
26.05.2013 23:00 7,2 C 79 % 1013,9 hPa 0,5 l/m 13,0 km/h W-NW 3,8 C 2,7 C 7,2 km/h
Min-Datum _ 25.05.13 25.05.13 23.05.13 - 21.05.13 - 25.05.13 26.05.13 21.05.13
_ Min-Zeit 03:19 16:19 14:19 - 06:19 - 03:19 08:19 06:19
Minimum _ 2,9 C 33 % 1004,8 hPa - 0,0 km/h - 0,5 C -2,5 C 0,0 km/h
Max-Datum _ 25.05.13 20.05.13 26.05.13 22.05.13 26.05.13 - 22.05.13 25.05.13 26.05.13
_ Max-Zeit 16:19 21:19 23:19 05:19 12:19 - 16:19 16:19 12:19
Maximum _ 21,6 C 84 % 1013,9 hPa 2,1 l/m 35,0 km/h
NW
- 10,9 C 21,6 C 19,4 km/h
NW
Durchschnitt _ 9,9 C 75 % 1010,6 hPa #29,0 l/m 6,7 km/h N-NW 5,4 C 8,2 C 3,7 km/h
www.sexauwetter.de